sensor_id;sensor_type;location;lat;lon;timestamp;P1;durP1;ratioP1;P2;durP2;ratioP2
11996;SDS011;6058;48.704;9.474;2023-04-23T00:01:49;3.53;;;2.70;;
11996;SDS011;6058;48.704;9.474;2023-04-23T00:04:18;3.23;;;2.80;;
11996;SDS011;6058;48.704;9.474;2023-04-23T00:06:46;3.33;;;2.73;;
11996;SDS011;6058;48.704;9.474;2023-04-23T00:09:14;5.13;;;2.40;;
11996;SDS011;6058;48.704;9.474;2023-04-23T00:11:42;2.50;;;2.30;;
11996;SDS011;6058;48.704;9.474;2023-04-23T00:14:10;3.63;;;2.37;;
11996;SDS011;6058;48.704;9.474;2023-04-23T00:16:38;3.33;;;2.47;;
11996;SDS011;6058;48.704;9.474;2023-04-23T00:19:05;2.77;;;1.97;;
11996;SDS011;6058;48.704;9.474;2023-04-23T00:21:33;3.70;;;1.93;;
11996;SDS011;6058;48.704;9.474;2023-04-23T00:24:00;3.17;;;2.33;;
11996;SDS011;6058;48.704;9.474;2023-04-23T00:26:27;3.80;;;2.60;;
11996;SDS011;6058;48.704;9.474;2023-04-23T00:28:54;2.23;;;2.03;;
11996;SDS011;6058;48.704;9.474;2023-04-23T00:31:23;5.27;;;2.80;;
11996;SDS011;6058;48.704;9.474;2023-04-23T00:33:51;3.10;;;2.43;;
11996;SDS011;6058;48.704;9.474;2023-04-23T00:36:18;4.63;;;2.20;;
11996;SDS011;6058;48.704;9.474;2023-04-23T00:38:45;2.13;;;1.93;;
11996;SDS011;6058;48.704;9.474;2023-04-23T00:41:12;2.73;;;2.00;;
11996;SDS011;6058;48.704;9.474;2023-04-23T00:43:40;3.77;;;2.17;;
11996;SDS011;6058;48.704;9.474;2023-04-23T00:46:07;1.93;;;1.77;;
11996;SDS011;6058;48.704;9.474;2023-04-23T00:48:37;5.23;;;2.00;;
11996;SDS011;6058;48.704;9.474;2023-04-23T00:51:04;7.10;;;2.53;;
11996;SDS011;6058;48.704;9.474;2023-04-23T00:53:32;3.27;;;1.90;;
11996;SDS011;6058;48.704;9.474;2023-04-23T00:56:00;2.60;;;1.93;;
11996;SDS011;6058;48.704;9.474;2023-04-23T00:58:27;4.13;;;2.23;;
11996;SDS011;6058;48.704;9.474;2023-04-23T01:00:55;4.60;;;2.10;;
11996;SDS011;6058;48.704;9.474;2023-04-23T01:03:22;3.53;;;2.13;;
11996;SDS011;6058;48.704;9.474;2023-04-23T01:05:51;2.27;;;1.70;;
11996;SDS011;6058;48.704;9.474;2023-04-23T01:08:18;2.70;;;1.90;;
11996;SDS011;6058;48.704;9.474;2023-04-23T01:10:47;4.97;;;1.70;;
11996;SDS011;6058;48.704;9.474;2023-04-23T01:13:14;3.40;;;1.90;;
11996;SDS011;6058;48.704;9.474;2023-04-23T01:15:42;2.83;;;2.10;;
11996;SDS011;6058;48.704;9.474;2023-04-23T01:18:10;4.13;;;2.20;;
11996;SDS011;6058;48.704;9.474;2023-04-23T01:20:37;1.70;;;1.60;;
11996;SDS011;6058;48.704;9.474;2023-04-23T01:23:06;4.77;;;2.07;;
11996;SDS011;6058;48.704;9.474;2023-04-23T01:25:33;3.40;;;2.00;;
11996;SDS011;6058;48.704;9.474;2023-04-23T01:28:00;2.87;;;1.90;;
11996;SDS011;6058;48.704;9.474;2023-04-23T01:30:28;4.03;;;1.80;;
11996;SDS011;6058;48.704;9.474;2023-04-23T01:32:56;3.03;;;1.87;;
11996;SDS011;6058;48.704;9.474;2023-04-23T01:35:23;2.23;;;2.00;;
11996;SDS011;6058;48.704;9.474;2023-04-23T01:37:51;3.43;;;2.00;;
11996;SDS011;6058;48.704;9.474;2023-04-23T01:40:21;6.33;;;2.40;;
11996;SDS011;6058;48.704;9.474;2023-04-23T01:42:48;2.70;;;1.80;;
11996;SDS011;6058;48.704;9.474;2023-04-23T01:45:15;2.13;;;1.77;;
11996;SDS011;6058;48.704;9.474;2023-04-23T01:47:43;4.53;;;2.13;;
11996;SDS011;6058;48.704;9.474;2023-04-23T01:50:13;2.67;;;2.07;;
11996;SDS011;6058;48.704;9.474;2023-04-23T01:52:40;1.67;;;1.57;;
11996;SDS011;6058;48.704;9.474;2023-04-23T01:55:08;2.03;;;1.87;;
11996;SDS011;6058;48.704;9.474;2023-04-23T01:57:37;4.10;;;2.10;;
11996;SDS011;6058;48.704;9.474;2023-04-23T02:00:05;3.43;;;1.77;;
11996;SDS011;6058;48.704;9.474;2023-04-23T02:02:33;3.47;;;1.90;;
11996;SDS011;6058;48.704;9.474;2023-04-23T02:05:00;2.00;;;1.90;;
11996;SDS011;6058;48.704;9.474;2023-04-23T02:07:29;4.27;;;2.00;;
11996;SDS011;6058;48.704;9.474;2023-04-23T02:09:56;2.77;;;1.77;;
11996;SDS011;6058;48.704;9.474;2023-04-23T02:12:23;3.10;;;1.93;;
11996;SDS011;6058;48.704;9.474;2023-04-23T02:14:52;2.33;;;1.80;;
11996;SDS011;6058;48.704;9.474;2023-04-23T02:17:19;4.63;;;1.93;;
11996;SDS011;6058;48.704;9.474;2023-04-23T02:19:47;3.33;;;1.97;;
11996;SDS011;6058;48.704;9.474;2023-04-23T02:22:14;3.87;;;2.03;;
11996;SDS011;6058;48.704;9.474;2023-04-23T02:24:41;3.80;;;1.93;;
11996;SDS011;6058;48.704;9.474;2023-04-23T02:27:11;3.30;;;2.07;;
11996;SDS011;6058;48.704;9.474;2023-04-23T02:29:38;4.47;;;2.43;;
11996;SDS011;6058;48.704;9.474;2023-04-23T02:32:07;2.43;;;2.03;;
11996;SDS011;6058;48.704;9.474;2023-04-23T02:34:35;3.10;;;2.20;;
11996;SDS011;6058;48.704;9.474;2023-04-23T02:37:02;5.17;;;2.13;;
11996;SDS011;6058;48.704;9.474;2023-04-23T02:39:30;3.83;;;2.17;;
11996;SDS011;6058;48.704;9.474;2023-04-23T02:41:57;2.10;;;1.70;;
11996;SDS011;6058;48.704;9.474;2023-04-23T02:44:24;2.07;;;1.87;;
11996;SDS011;6058;48.704;9.474;2023-04-23T02:46:51;2.87;;;2.10;;
11996;SDS011;6058;48.704;9.474;2023-04-23T02:49:20;4.50;;;2.00;;
11996;SDS011;6058;48.704;9.474;2023-04-23T02:51:47;2.07;;;1.87;;
11996;SDS011;6058;48.704;9.474;2023-04-23T02:54:14;3.60;;;2.10;;
11996;SDS011;6058;48.704;9.474;2023-04-23T02:56:42;3.90;;;1.90;;
11996;SDS011;6058;48.704;9.474;2023-04-23T02:59:09;3.77;;;1.90;;
11996;SDS011;6058;48.704;9.474;2023-04-23T03:01:36;2.13;;;2.00;;
11996;SDS011;6058;48.704;9.474;2023-04-23T03:04:03;2.53;;;2.00;;
11996;SDS011;6058;48.704;9.474;2023-04-23T03:06:32;2.67;;;2.03;;
11996;SDS011;6058;48.704;9.474;2023-04-23T03:09:01;1.80;;;1.70;;
11996;SDS011;6058;48.704;9.474;2023-04-23T03:11:28;3.07;;;2.17;;
11996;SDS011;6058;48.704;9.474;2023-04-23T03:13:56;2.13;;;1.60;;
11996;SDS011;6058;48.704;9.474;2023-04-23T03:16:23;3.10;;;1.80;;
11996;SDS011;6058;48.704;9.474;2023-04-23T03:18:50;2.73;;;1.93;;
11996;SDS011;6058;48.704;9.474;2023-04-23T03:21:18;2.17;;;1.90;;
11996;SDS011;6058;48.704;9.474;2023-04-23T03:23:46;2.60;;;1.80;;
11996;SDS011;6058;48.704;9.474;2023-04-23T03:26:13;2.13;;;1.87;;
11996;SDS011;6058;48.704;9.474;2023-04-23T03:28:41;1.90;;;1.80;;
11996;SDS011;6058;48.704;9.474;2023-04-23T03:31:08;1.97;;;1.57;;
11996;SDS011;6058;48.704;9.474;2023-04-23T03:33:35;2.40;;;1.87;;
11996;SDS011;6058;48.704;9.474;2023-04-23T03:36:02;2.73;;;1.83;;
11996;SDS011;6058;48.704;9.474;2023-04-23T03:38:30;2.07;;;1.60;;
11996;SDS011;6058;48.704;9.474;2023-04-23T03:40:59;3.20;;;1.77;;
11996;SDS011;6058;48.704;9.474;2023-04-23T03:43:26;1.70;;;1.60;;
11996;SDS011;6058;48.704;9.474;2023-04-23T03:45:53;1.70;;;1.60;;
11996;SDS011;6058;48.704;9.474;2023-04-23T03:48:20;1.63;;;1.53;;
11996;SDS011;6058;48.704;9.474;2023-04-23T03:50:47;1.53;;;1.43;;
11996;SDS011;6058;48.704;9.474;2023-04-23T03:53:15;1.70;;;1.30;;
11996;SDS011;6058;48.704;9.474;2023-04-23T03:55:42;3.20;;;1.60;;
11996;SDS011;6058;48.704;9.474;2023-04-23T03:58:10;1.30;;;1.30;;
11996;SDS011;6058;48.704;9.474;2023-04-23T04:00:38;2.83;;;1.57;;
11996;SDS011;6058;48.704;9.474;2023-04-23T04:03:05;2.53;;;1.50;;
11996;SDS011;6058;48.704;9.474;2023-04-23T04:05:33;1.77;;;1.67;;
11996;SDS011;6058;48.704;9.474;2023-04-23T04:08:00;1.83;;;1.60;;
11996;SDS011;6058;48.704;9.474;2023-04-23T04:10:29;1.80;;;1.70;;
11996;SDS011;6058;48.704;9.474;2023-04-23T04:12:56;3.03;;;1.77;;
11996;SDS011;6058;48.704;9.474;2023-04-23T04:15:24;2.80;;;1.80;;
11996;SDS011;6058;48.704;9.474;2023-04-23T04:17:51;2.30;;;1.50;;
11996;SDS011;6058;48.704;9.474;2023-04-23T04:20:19;1.53;;;1.43;;
11996;SDS011;6058;48.704;9.474;2023-04-23T04:22:46;1.63;;;1.53;;
11996;SDS011;6058;48.704;9.474;2023-04-23T04:25:13;2.90;;;1.60;;
11996;SDS011;6058;48.704;9.474;2023-04-23T04:27:40;1.87;;;1.77;;
11996;SDS011;6058;48.704;9.474;2023-04-23T04:30:08;2.40;;;1.60;;
11996;SDS011;6058;48.704;9.474;2023-04-23T04:32:36;2.80;;;1.70;;
11996;SDS011;6058;48.704;9.474;2023-04-23T04:37:32;1.67;;;1.50;;
11996;SDS011;6058;48.704;9.474;2023-04-23T04:40:00;1.70;;;1.60;;
11996;SDS011;6058;48.704;9.474;2023-04-23T04:42:29;1.70;;;1.57;;
11996;SDS011;6058;48.704;9.474;2023-04-23T04:44:56;3.10;;;1.93;;
11996;SDS011;6058;48.704;9.474;2023-04-23T04:47:23;2.10;;;1.87;;
11996;SDS011;6058;48.704;9.474;2023-04-23T04:49:52;1.87;;;1.70;;
11996;SDS011;6058;48.704;9.474;2023-04-23T04:52:21;3.87;;;1.83;;
11996;SDS011;6058;48.704;9.474;2023-04-23T04:54:48;2.57;;;1.93;;
11996;SDS011;6058;48.704;9.474;2023-04-23T04:57:16;2.03;;;1.80;;
11996;SDS011;6058;48.704;9.474;2023-04-23T04:59:44;3.33;;;1.60;;
11996;SDS011;6058;48.704;9.474;2023-04-23T05:02:11;2.87;;;1.80;;
11996;SDS011;6058;48.704;9.474;2023-04-23T05:04:38;1.60;;;1.50;;
11996;SDS011;6058;48.704;9.474;2023-04-23T05:07:07;2.13;;;1.50;;
11996;SDS011;6058;48.704;9.474;2023-04-23T05:09:35;5.20;;;1.97;;
11996;SDS011;6058;48.704;9.474;2023-04-23T05:12:02;1.87;;;1.63;;
11996;SDS011;6058;48.704;9.474;2023-04-23T05:14:31;2.20;;;1.97;;
11996;SDS011;6058;48.704;9.474;2023-04-23T05:16:58;1.87;;;1.77;;
11996;SDS011;6058;48.704;9.474;2023-04-23T05:19:25;1.80;;;1.70;;
11996;SDS011;6058;48.704;9.474;2023-04-23T05:21:53;1.90;;;1.80;;
11996;SDS011;6058;48.704;9.474;2023-04-23T05:24:22;2.77;;;1.73;;
11996;SDS011;6058;48.704;9.474;2023-04-23T05:26:49;5.00;;;2.00;;
11996;SDS011;6058;48.704;9.474;2023-04-23T05:29:16;2.20;;;2.00;;
11996;SDS011;6058;48.704;9.474;2023-04-23T05:31:43;1.93;;;1.80;;
11996;SDS011;6058;48.704;9.474;2023-04-23T05:34:11;2.03;;;1.87;;
11996;SDS011;6058;48.704;9.474;2023-04-23T05:36:38;2.20;;;2.00;;
11996;SDS011;6058;48.704;9.474;2023-04-23T05:39:05;5.33;;;2.00;;
11996;SDS011;6058;48.704;9.474;2023-04-23T05:41:33;2.47;;;1.90;;
11996;SDS011;6058;48.704;9.474;2023-04-23T05:44:01;2.10;;;1.70;;
11996;SDS011;6058;48.704;9.474;2023-04-23T05:46:28;2.50;;;2.30;;
11996;SDS011;6058;48.704;9.474;2023-04-23T05:48:55;3.77;;;2.00;;
11996;SDS011;6058;48.704;9.474;2023-04-23T05:51:22;3.60;;;2.00;;
11996;SDS011;6058;48.704;9.474;2023-04-23T05:53:49;2.60;;;2.40;;
11996;SDS011;6058;48.704;9.474;2023-04-23T05:56:16;2.37;;;2.17;;
11996;SDS011;6058;48.704;9.474;2023-04-23T05:58:50;2.20;;;2.00;;
11996;SDS011;6058;48.704;9.474;2023-04-23T06:01:17;2.70;;;2.33;;
11996;SDS011;6058;48.704;9.474;2023-04-23T06:03:44;3.90;;;1.93;;
11996;SDS011;6058;48.704;9.474;2023-04-23T06:06:12;2.20;;;2.00;;
11996;SDS011;6058;48.704;9.474;2023-04-23T06:08:39;5.57;;;1.83;;
11996;SDS011;6058;48.704;9.474;2023-04-23T06:11:06;2.30;;;2.10;;
11996;SDS011;6058;48.704;9.474;2023-04-23T06:13:34;3.47;;;2.23;;
11996;SDS011;6058;48.704;9.474;2023-04-23T06:16:05;3.10;;;2.70;;
11996;SDS011;6058;48.704;9.474;2023-04-23T06:18:33;3.73;;;2.50;;
11996;SDS011;6058;48.704;9.474;2023-04-23T06:21:00;3.43;;;2.13;;
11996;SDS011;6058;48.704;9.474;2023-04-23T06:23:29;2.30;;;2.10;;
11996;SDS011;6058;48.704;9.474;2023-04-23T06:25:56;2.40;;;1.93;;
11996;SDS011;6058;48.704;9.474;2023-04-23T06:28:23;2.00;;;1.90;;
11996;SDS011;6058;48.704;9.474;2023-04-23T06:30:51;2.70;;;2.10;;
11996;SDS011;6058;48.704;9.474;2023-04-23T06:33:19;2.30;;;1.90;;
11996;SDS011;6058;48.704;9.474;2023-04-23T06:35:46;3.40;;;2.10;;
11996;SDS011;6058;48.704;9.474;2023-04-23T06:38:13;3.90;;;2.13;;
11996;SDS011;6058;48.704;9.474;2023-04-23T06:40:42;2.33;;;2.13;;
11996;SDS011;6058;48.704;9.474;2023-04-23T06:43:10;5.33;;;2.40;;
11996;SDS011;6058;48.704;9.474;2023-04-23T06:45:38;5.07;;;2.30;;
11996;SDS011;6058;48.704;9.474;2023-04-23T06:48:05;1.87;;;1.77;;
11996;SDS011;6058;48.704;9.474;2023-04-23T06:50:34;2.00;;;1.90;;
11996;SDS011;6058;48.704;9.474;2023-04-23T06:53:01;2.73;;;2.10;;
11996;SDS011;6058;48.704;9.474;2023-04-23T06:55:28;2.07;;;1.30;;
11996;SDS011;6058;48.704;9.474;2023-04-23T06:57:55;2.77;;;1.67;;
11996;SDS011;6058;48.704;9.474;2023-04-23T07:00:22;3.67;;;1.40;;
11996;SDS011;6058;48.704;9.474;2023-04-23T07:02:50;1.97;;;1.40;;
11996;SDS011;6058;48.704;9.474;2023-04-23T07:05:17;1.30;;;1.30;;
11996;SDS011;6058;48.704;9.474;2023-04-23T07:07:46;1.90;;;1.37;;
11996;SDS011;6058;48.704;9.474;2023-04-23T07:10:13;0.90;;;0.80;;
11996;SDS011;6058;48.704;9.474;2023-04-23T07:12:40;0.80;;;0.80;;
11996;SDS011;6058;48.704;9.474;2023-04-23T07:15:07;1.17;;;1.00;;
11996;SDS011;6058;48.704;9.474;2023-04-23T07:17:36;1.17;;;0.70;;
11996;SDS011;6058;48.704;9.474;2023-04-23T07:20:04;1.53;;;0.80;;
11996;SDS011;6058;48.704;9.474;2023-04-23T07:22:32;0.73;;;0.73;;
11996;SDS011;6058;48.704;9.474;2023-04-23T07:25:01;0.80;;;0.80;;
11996;SDS011;6058;48.704;9.474;2023-04-23T07:27:29;1.53;;;0.87;;
11996;SDS011;6058;48.704;9.474;2023-04-23T07:29:56;0.73;;;0.73;;
11996;SDS011;6058;48.704;9.474;2023-04-23T07:32:24;0.60;;;0.60;;
11996;SDS011;6058;48.704;9.474;2023-04-23T07:34:52;0.80;;;0.60;;
11996;SDS011;6058;48.704;9.474;2023-04-23T07:37:20;1.13;;;0.67;;
11996;SDS011;6058;48.704;9.474;2023-04-23T07:39:47;0.50;;;0.50;;
11996;SDS011;6058;48.704;9.474;2023-04-23T07:42:15;0.40;;;0.40;;
11996;SDS011;6058;48.704;9.474;2023-04-23T07:44:43;0.80;;;0.77;;
11996;SDS011;6058;48.704;9.474;2023-04-23T07:47:10;0.50;;;0.50;;
11996;SDS011;6058;48.704;9.474;2023-04-23T07:49:37;0.63;;;0.63;;
11996;SDS011;6058;48.704;9.474;2023-04-23T07:52:04;0.87;;;0.50;;
11996;SDS011;6058;48.704;9.474;2023-04-23T07:54:32;0.73;;;0.50;;
11996;SDS011;6058;48.704;9.474;2023-04-23T07:56:59;0.50;;;0.50;;
11996;SDS011;6058;48.704;9.474;2023-04-23T07:59:28;1.10;;;1.10;;
11996;SDS011;6058;48.704;9.474;2023-04-23T08:01:55;0.80;;;0.60;;
11996;SDS011;6058;48.704;9.474;2023-04-23T08:04:22;0.60;;;0.60;;
11996;SDS011;6058;48.704;9.474;2023-04-23T08:06:50;0.43;;;0.43;;
11996;SDS011;6058;48.704;9.474;2023-04-23T08:09:17;1.67;;;0.60;;
11996;SDS011;6058;48.704;9.474;2023-04-23T08:11:44;0.50;;;0.50;;
11996;SDS011;6058;48.704;9.474;2023-04-23T08:14:12;0.40;;;0.40;;
11996;SDS011;6058;48.704;9.474;2023-04-23T08:16:40;0.90;;;0.53;;
11996;SDS011;6058;48.704;9.474;2023-04-23T08:19:08;0.50;;;0.50;;
11996;SDS011;6058;48.704;9.474;2023-04-23T08:21:35;0.60;;;0.60;;
11996;SDS011;6058;48.704;9.474;2023-04-23T08:24:03;0.40;;;0.40;;
11996;SDS011;6058;48.704;9.474;2023-04-23T08:26:31;0.50;;;0.50;;
11996;SDS011;6058;48.704;9.474;2023-04-23T08:28:58;0.40;;;0.40;;
11996;SDS011;6058;48.704;9.474;2023-04-23T08:31:27;0.50;;;0.50;;
11996;SDS011;6058;48.704;9.474;2023-04-23T08:33:55;0.50;;;0.50;;
11996;SDS011;6058;48.704;9.474;2023-04-23T08:36:23;0.47;;;0.47;;
11996;SDS011;6058;48.704;9.474;2023-04-23T08:38:51;0.90;;;0.50;;
11996;SDS011;6058;48.704;9.474;2023-04-23T08:41:18;1.20;;;0.63;;
11996;SDS011;6058;48.704;9.474;2023-04-23T08:43:50;0.67;;;0.50;;
11996;SDS011;6058;48.704;9.474;2023-04-23T08:46:18;0.50;;;0.50;;
11996;SDS011;6058;48.704;9.474;2023-04-23T08:48:45;0.60;;;0.60;;
11996;SDS011;6058;48.704;9.474;2023-04-23T08:51:16;0.60;;;0.60;;
11996;SDS011;6058;48.704;9.474;2023-04-23T08:53:44;0.40;;;0.40;;
11996;SDS011;6058;48.704;9.474;2023-04-23T08:56:14;1.50;;;0.57;;
11996;SDS011;6058;48.704;9.474;2023-04-23T08:58:41;0.50;;;0.50;;
11996;SDS011;6058;48.704;9.474;2023-04-23T09:01:08;1.33;;;0.60;;
11996;SDS011;6058;48.704;9.474;2023-04-23T09:03:36;0.40;;;0.40;;
11996;SDS011;6058;48.704;9.474;2023-04-23T09:06:03;0.63;;;0.50;;
11996;SDS011;6058;48.704;9.474;2023-04-23T09:08:32;0.70;;;0.57;;
11996;SDS011;6058;48.704;9.474;2023-04-23T09:11:00;0.60;;;0.60;;
11996;SDS011;6058;48.704;9.474;2023-04-23T09:13:28;0.83;;;0.60;;
11996;SDS011;6058;48.704;9.474;2023-04-23T09:15:56;0.50;;;0.50;;
11996;SDS011;6058;48.704;9.474;2023-04-23T09:18:23;1.50;;;0.60;;
11996;SDS011;6058;48.704;9.474;2023-04-23T09:20:50;3.30;;;0.60;;
11996;SDS011;6058;48.704;9.474;2023-04-23T09:23:20;0.40;;;0.40;;
11996;SDS011;6058;48.704;9.474;2023-04-23T09:25:49;0.60;;;0.60;;
11996;SDS011;6058;48.704;9.474;2023-04-23T09:28:16;0.40;;;0.40;;
11996;SDS011;6058;48.704;9.474;2023-04-23T09:30:44;0.77;;;0.60;;
11996;SDS011;6058;48.704;9.474;2023-04-23T09:33:11;0.60;;;0.60;;
11996;SDS011;6058;48.704;9.474;2023-04-23T09:35:38;0.83;;;0.83;;
11996;SDS011;6058;48.704;9.474;2023-04-23T09:38:07;1.73;;;1.17;;
11996;SDS011;6058;48.704;9.474;2023-04-23T09:40:34;1.07;;;0.50;;
11996;SDS011;6058;48.704;9.474;2023-04-23T09:43:04;1.27;;;0.80;;
11996;SDS011;6058;48.704;9.474;2023-04-23T09:45:32;0.40;;;0.40;;
11996;SDS011;6058;48.704;9.474;2023-04-23T09:48:00;0.60;;;0.60;;
11996;SDS011;6058;48.704;9.474;2023-04-23T09:50:31;1.60;;;0.70;;
11996;SDS011;6058;48.704;9.474;2023-04-23T09:52:58;0.43;;;0.43;;
11996;SDS011;6058;48.704;9.474;2023-04-23T09:55:26;0.50;;;0.50;;
11996;SDS011;6058;48.704;9.474;2023-04-23T09:57:54;0.50;;;0.50;;
11996;SDS011;6058;48.704;9.474;2023-04-23T10:00:23;1.43;;;0.60;;
11996;SDS011;6058;48.704;9.474;2023-04-23T10:02:54;0.50;;;0.50;;
11996;SDS011;6058;48.704;9.474;2023-04-23T10:08:13;2.00;;;0.67;;
11996;SDS011;6058;48.704;9.474;2023-04-23T10:10:41;1.07;;;0.80;;
11996;SDS011;6058;48.704;9.474;2023-04-23T10:13:09;0.50;;;0.50;;
11996;SDS011;6058;48.704;9.474;2023-04-23T10:15:38;0.43;;;0.43;;
11996;SDS011;6058;48.704;9.474;2023-04-23T10:18:06;1.17;;;0.70;;
11996;SDS011;6058;48.704;9.474;2023-04-23T10:20:34;0.60;;;0.60;;
11996;SDS011;6058;48.704;9.474;2023-04-23T10:23:01;0.87;;;0.50;;
11996;SDS011;6058;48.704;9.474;2023-04-23T10:25:29;0.50;;;0.50;;
11996;SDS011;6058;48.704;9.474;2023-04-23T10:27:57;0.90;;;0.50;;
11996;SDS011;6058;48.704;9.474;2023-04-23T10:30:24;0.63;;;0.63;;
11996;SDS011;6058;48.704;9.474;2023-04-23T10:32:53;0.60;;;0.60;;
11996;SDS011;6058;48.704;9.474;2023-04-23T10:35:21;0.40;;;0.40;;
11996;SDS011;6058;48.704;9.474;2023-04-23T10:37:48;1.43;;;0.50;;
11996;SDS011;6058;48.704;9.474;2023-04-23T10:40:17;0.53;;;0.53;;
11996;SDS011;6058;48.704;9.474;2023-04-23T10:42:45;0.60;;;0.60;;
11996;SDS011;6058;48.704;9.474;2023-04-23T10:45:13;0.70;;;0.70;;
11996;SDS011;6058;48.704;9.474;2023-04-23T10:47:41;0.67;;;0.67;;
11996;SDS011;6058;48.704;9.474;2023-04-23T10:50:21;0.70;;;0.70;;
11996;SDS011;6058;48.704;9.474;2023-04-23T10:52:48;0.60;;;0.60;;
11996;SDS011;6058;48.704;9.474;2023-04-23T10:55:18;0.60;;;0.50;;
11996;SDS011;6058;48.704;9.474;2023-04-23T10:57:54;0.63;;;0.57;;
11996;SDS011;6058;48.704;9.474;2023-04-23T11:00:22;0.57;;;0.57;;
11996;SDS011;6058;48.704;9.474;2023-04-23T11:02:49;1.10;;;0.80;;
11996;SDS011;6058;48.704;9.474;2023-04-23T11:05:17;0.80;;;0.80;;
11996;SDS011;6058;48.704;9.474;2023-04-23T11:10:27;0.87;;;0.50;;
11996;SDS011;6058;48.704;9.474;2023-04-23T11:12:55;0.83;;;0.70;;
11996;SDS011;6058;48.704;9.474;2023-04-23T11:15:22;0.50;;;0.50;;
11996;SDS011;6058;48.704;9.474;2023-04-23T11:17:58;0.60;;;0.60;;
11996;SDS011;6058;48.704;9.474;2023-04-23T11:20:26;1.00;;;0.80;;
11996;SDS011;6058;48.704;9.474;2023-04-23T11:22:53;0.60;;;0.60;;
11996;SDS011;6058;48.704;9.474;2023-04-23T11:25:21;2.30;;;0.70;;
11996;SDS011;6058;48.704;9.474;2023-04-23T11:27:50;0.60;;;0.60;;
11996;SDS011;6058;48.704;9.474;2023-04-23T11:30:18;2.37;;;0.70;;
11996;SDS011;6058;48.704;9.474;2023-04-23T11:32:47;1.47;;;0.80;;
11996;SDS011;6058;48.704;9.474;2023-04-23T11:35:15;1.33;;;0.80;;
11996;SDS011;6058;48.704;9.474;2023-04-23T11:37:43;0.70;;;0.70;;
11996;SDS011;6058;48.704;9.474;2023-04-23T11:40:11;0.70;;;0.70;;
11996;SDS011;6058;48.704;9.474;2023-04-23T11:42:42;1.13;;;0.90;;
11996;SDS011;6058;48.704;9.474;2023-04-23T11:47:40;0.87;;;0.80;;
11996;SDS011;6058;48.704;9.474;2023-04-23T11:50:07;0.80;;;0.80;;
11996;SDS011;6058;48.704;9.474;2023-04-23T11:52:34;0.80;;;0.80;;
11996;SDS011;6058;48.704;9.474;2023-04-23T11:55:02;0.80;;;0.70;;
11996;SDS011;6058;48.704;9.474;2023-04-23T11:57:29;0.93;;;0.80;;
11996;SDS011;6058;48.704;9.474;2023-04-23T11:59:56;0.70;;;0.70;;
11996;SDS011;6058;48.704;9.474;2023-04-23T12:02:24;0.80;;;0.70;;
11996;SDS011;6058;48.704;9.474;2023-04-23T12:04:53;1.30;;;1.20;;
11996;SDS011;6058;48.704;9.474;2023-04-23T12:07:29;2.17;;;1.00;;
11996;SDS011;6058;48.704;9.474;2023-04-23T12:09:57;1.07;;;0.90;;
11996;SDS011;6058;48.704;9.474;2023-04-23T12:12:31;0.80;;;0.80;;
11996;SDS011;6058;48.704;9.474;2023-04-23T12:15:02;1.23;;;0.80;;
11996;SDS011;6058;48.704;9.474;2023-04-23T12:17:29;2.60;;;0.83;;
11996;SDS011;6058;48.704;9.474;2023-04-23T12:19:58;0.87;;;0.87;;
11996;SDS011;6058;48.704;9.474;2023-04-23T12:22:26;0.67;;;0.67;;
11996;SDS011;6058;48.704;9.474;2023-04-23T12:24:53;0.70;;;0.70;;
11996;SDS011;6058;48.704;9.474;2023-04-23T12:27:20;0.80;;;0.80;;
11996;SDS011;6058;48.704;9.474;2023-04-23T12:29:47;1.00;;;0.90;;
11996;SDS011;6058;48.704;9.474;2023-04-23T12:32:15;0.77;;;0.77;;
11996;SDS011;6058;48.704;9.474;2023-04-23T12:34:49;1.37;;;0.80;;
11996;SDS011;6058;48.704;9.474;2023-04-23T12:37:22;0.97;;;0.60;;
11996;SDS011;6058;48.704;9.474;2023-04-23T12:39:49;1.03;;;0.70;;
11996;SDS011;6058;48.704;9.474;2023-04-23T12:42:17;0.90;;;0.90;;
11996;SDS011;6058;48.704;9.474;2023-04-23T12:44:44;0.87;;;0.87;;
11996;SDS011;6058;48.704;9.474;2023-04-23T12:47:11;3.07;;;0.83;;
11996;SDS011;6058;48.704;9.474;2023-04-23T12:49:39;1.13;;;0.70;;
11996;SDS011;6058;48.704;9.474;2023-04-23T12:52:07;1.27;;;0.70;;
11996;SDS011;6058;48.704;9.474;2023-04-23T12:54:36;1.07;;;0.70;;
11996;SDS011;6058;48.704;9.474;2023-04-23T12:57:05;0.77;;;0.70;;
11996;SDS011;6058;48.704;9.474;2023-04-23T12:59:32;0.77;;;0.77;;
11996;SDS011;6058;48.704;9.474;2023-04-23T13:01:59;0.60;;;0.60;;
11996;SDS011;6058;48.704;9.474;2023-04-23T13:04:26;0.50;;;0.50;;
11996;SDS011;6058;48.704;9.474;2023-04-23T13:06:53;0.70;;;0.70;;
11996;SDS011;6058;48.704;9.474;2023-04-23T13:09:21;1.03;;;0.70;;
11996;SDS011;6058;48.704;9.474;2023-04-23T13:11:50;0.60;;;0.60;;
11996;SDS011;6058;48.704;9.474;2023-04-23T13:14:17;1.33;;;0.60;;
11996;SDS011;6058;48.704;9.474;2023-04-23T13:16:45;1.00;;;0.80;;
11996;SDS011;6058;48.704;9.474;2023-04-23T13:19:12;0.80;;;0.60;;
11996;SDS011;6058;48.704;9.474;2023-04-23T13:21:40;0.70;;;0.70;;
11996;SDS011;6058;48.704;9.474;2023-04-23T13:24:08;0.60;;;0.60;;
11996;SDS011;6058;48.704;9.474;2023-04-23T13:26:35;0.50;;;0.50;;
11996;SDS011;6058;48.704;9.474;2023-04-23T13:29:03;0.60;;;0.60;;
11996;SDS011;6058;48.704;9.474;2023-04-23T13:31:31;0.60;;;0.60;;
11996;SDS011;6058;48.704;9.474;2023-04-23T13:33:58;0.77;;;0.70;;
11996;SDS011;6058;48.704;9.474;2023-04-23T13:36:26;0.77;;;0.77;;
11996;SDS011;6058;48.704;9.474;2023-04-23T13:38:54;0.50;;;0.50;;
11996;SDS011;6058;48.704;9.474;2023-04-23T13:41:21;1.70;;;0.70;;
11996;SDS011;6058;48.704;9.474;2023-04-23T13:43:49;0.97;;;0.70;;
11996;SDS011;6058;48.704;9.474;2023-04-23T13:46:18;0.50;;;0.50;;
11996;SDS011;6058;48.704;9.474;2023-04-23T13:48:45;1.27;;;0.80;;
11996;SDS011;6058;48.704;9.474;2023-04-23T13:51:12;0.90;;;0.60;;
11996;SDS011;6058;48.704;9.474;2023-04-23T13:53:39;0.50;;;0.50;;
11996;SDS011;6058;48.704;9.474;2023-04-23T13:56:07;0.93;;;0.70;;
11996;SDS011;6058;48.704;9.474;2023-04-23T13:58:34;0.93;;;0.90;;
11996;SDS011;6058;48.704;9.474;2023-04-23T14:01:01;1.40;;;1.20;;
11996;SDS011;6058;48.704;9.474;2023-04-23T14:03:31;1.33;;;1.23;;
11996;SDS011;6058;48.704;9.474;2023-04-23T14:05:58;0.70;;;0.70;;
11996;SDS011;6058;48.704;9.474;2023-04-23T14:08:26;0.70;;;0.70;;
11996;SDS011;6058;48.704;9.474;2023-04-23T14:10:54;1.53;;;1.03;;
11996;SDS011;6058;48.704;9.474;2023-04-23T14:13:21;0.90;;;0.90;;
11996;SDS011;6058;48.704;9.474;2023-04-23T14:15:48;0.87;;;0.87;;
11996;SDS011;6058;48.704;9.474;2023-04-23T14:18:15;1.27;;;1.17;;
11996;SDS011;6058;48.704;9.474;2023-04-23T14:20:44;0.83;;;0.83;;
11996;SDS011;6058;48.704;9.474;2023-04-23T14:26:03;1.90;;;0.90;;
11996;SDS011;6058;48.704;9.474;2023-04-23T14:28:32;2.90;;;1.00;;
11996;SDS011;6058;48.704;9.474;2023-04-23T14:31:00;0.73;;;0.73;;
11996;SDS011;6058;48.704;9.474;2023-04-23T14:33:27;4.87;;;0.80;;
11996;SDS011;6058;48.704;9.474;2023-04-23T14:35:56;1.07;;;0.80;;
11996;SDS011;6058;48.704;9.474;2023-04-23T14:38:23;1.60;;;1.10;;
11996;SDS011;6058;48.704;9.474;2023-04-23T14:40:50;1.00;;;0.90;;
11996;SDS011;6058;48.704;9.474;2023-04-23T14:43:17;1.37;;;0.70;;
11996;SDS011;6058;48.704;9.474;2023-04-23T14:45:45;1.47;;;0.70;;
11996;SDS011;6058;48.704;9.474;2023-04-23T14:48:14;2.17;;;0.70;;
11996;SDS011;6058;48.704;9.474;2023-04-23T14:50:42;0.97;;;0.60;;
11996;SDS011;6058;48.704;9.474;2023-04-23T14:53:10;0.90;;;0.90;;
11996;SDS011;6058;48.704;9.474;2023-04-23T14:55:37;0.80;;;0.80;;
11996;SDS011;6058;48.704;9.474;2023-04-23T14:58:07;0.70;;;0.70;;
11996;SDS011;6058;48.704;9.474;2023-04-23T15:00:34;1.80;;;1.20;;
11996;SDS011;6058;48.704;9.474;2023-04-23T15:03:01;0.90;;;0.90;;
11996;SDS011;6058;48.704;9.474;2023-04-23T15:05:32;2.67;;;1.10;;
11996;SDS011;6058;48.704;9.474;2023-04-23T15:07:59;2.20;;;0.93;;
11996;SDS011;6058;48.704;9.474;2023-04-23T15:10:27;1.57;;;1.10;;
11996;SDS011;6058;48.704;9.474;2023-04-23T15:13:00;1.53;;;0.80;;
11996;SDS011;6058;48.704;9.474;2023-04-23T15:15:34;2.67;;;1.00;;
11996;SDS011;6058;48.704;9.474;2023-04-23T15:18:03;0.60;;;0.60;;